createdAt,value
2022-08-24T00:02:02.313Z,98954.56
2022-08-24T00:04:32.052Z,98957.84
2022-08-24T00:07:02.357Z,98963.91
2022-08-24T00:09:32.201Z,98964.34
2022-08-24T00:12:01.025Z,98973.22
2022-08-24T00:14:29.557Z,98989.25
2022-08-24T00:16:58.749Z,98995.31
2022-08-24T00:19:28.869Z,99012.13
2022-08-24T00:21:57.570Z,99021.22
2022-08-24T00:24:26.163Z,99028.81
2022-08-24T00:26:55.634Z,99030.00
2022-08-24T00:29:24.876Z,99041.38
2022-08-24T00:31:53.695Z,99036.09
2022-08-24T00:34:22.450Z,99034.78
2022-08-24T00:36:51.142Z,99029.72
2022-08-24T00:39:19.944Z,99048.03
2022-08-24T00:41:51.305Z,99036.97
2022-08-24T00:44:21.507Z,99041.53
2022-08-24T00:47:01.056Z,99038.16
2022-08-24T00:49:40.676Z,99046.81
2022-08-24T00:52:25.918Z,99031.66
2022-08-24T00:54:59.623Z,99031.09
2022-08-24T00:57:33.093Z,99031.31
2022-08-24T01:00:08.543Z,99034.38
2022-08-24T01:02:43.236Z,99030.47
2022-08-24T01:05:13.605Z,99042.69
2022-08-24T01:07:42.729Z,99039.53
2022-08-24T01:10:16.039Z,99042.78
2022-08-24T01:13:00.122Z,99035.28
2022-08-24T01:15:35.544Z,99043.22
2022-08-24T01:18:23.781Z,99044.94
2022-08-24T01:21:02.930Z,99046.44
2022-08-24T01:23:52.767Z,99041.03
2022-08-24T01:26:40.982Z,99046.88
2022-08-24T01:29:14.875Z,99048.63
2022-08-24T01:31:43.811Z,99050.34
2022-08-24T01:34:14.105Z,99059.25
2022-08-24T01:36:48.177Z,99065.31
2022-08-24T01:39:25.955Z,99070.59
2022-08-24T01:41:54.764Z,99082.09
2022-08-24T01:44:25.279Z,99081.56
2022-08-24T01:46:56.047Z,99083.28
2022-08-24T01:49:30.522Z,99070.13
2022-08-24T01:52:00.504Z,99076.22
2022-08-24T01:54:29.969Z,99076.22
2022-08-24T01:56:58.596Z,99081.66
2022-08-24T01:59:27.779Z,99077.53
2022-08-24T02:02:03.138Z,99080.56
2022-08-24T02:04:34.122Z,99072.31
2022-08-24T02:07:03.333Z,99081.75
2022-08-24T02:09:33.091Z,99090.41
2022-08-24T02:12:01.898Z,99087.03
2022-08-24T02:14:30.979Z,99088.75
2022-08-24T02:17:03.650Z,99088.22
2022-08-24T02:19:32.703Z,99075.81
2022-08-24T02:22:01.925Z,99077.53
2022-08-24T02:24:30.978Z,99071.34
2022-08-24T02:27:01.179Z,99075.69
2022-08-24T02:29:30.503Z,99082.09
2022-08-24T02:31:59.122Z,99079.25
2022-08-24T02:34:27.706Z,99088.50
2022-08-24T02:36:56.369Z,99082.31
2022-08-24T02:39:25.230Z,99077.97
2022-08-24T02:41:54.111Z,99078.72
2022-08-24T02:44:22.715Z,99082.84
2022-08-24T02:46:51.526Z,99082.09
2022-08-24T02:49:20.339Z,99084.91
2022-08-24T02:51:49.400Z,99090.00
2022-08-24T02:54:19.272Z,99080.78
2022-08-24T02:56:48.682Z,99076.69
2022-08-24T02:59:18.246Z,99078.72
2022-08-24T03:01:47.103Z,99076.13
2022-08-24T03:04:19.270Z,99071.25
2022-08-24T03:06:48.011Z,99067.09
2022-08-24T03:09:17.314Z,99071.25
2022-08-24T03:11:45.907Z,99072.97
2022-08-24T03:14:15.228Z,99071.44
2022-08-24T03:16:44.880Z,99076.53
2022-08-24T03:19:14.672Z,99072.41
2022-08-24T03:21:43.337Z,99070.56
2022-08-24T03:24:12.006Z,99070.00
2022-08-24T03:26:44.141Z,99073.56
2022-08-24T03:29:13.417Z,99068.69
2022-08-24T03:31:44.791Z,99062.72
2022-08-24T03:34:17.002Z,99058.59
2022-08-24T03:36:48.683Z,99058.59
2022-08-24T03:39:18.155Z,99053.34
2022-08-24T03:41:46.718Z,99042.81
2022-08-24T03:44:15.583Z,99040.00
2022-08-24T03:46:44.163Z,99033.25
2022-08-24T03:49:13.084Z,99033.25
2022-08-24T03:51:41.648Z,99024.78
2022-08-24T03:54:14.987Z,99026.28
2022-08-24T03:56:43.911Z,99015.00
2022-08-24T03:59:14.185Z,99004.88
2022-08-24T04:01:44.447Z,99007.16
2022-08-24T04:04:13.365Z,98998.69
2022-08-24T04:06:45.386Z,98998.88
2022-08-24T04:09:14.662Z,98993.44
2022-08-24T04:11:44.770Z,98991.56
2022-08-24T04:14:27.579Z,98993.28
2022-08-24T04:16:57.614Z,98986.53
2022-08-24T04:19:27.664Z,98975.03
2022-08-24T04:21:59.702Z,98970.34
2022-08-24T04:24:28.715Z,98966.00
2022-08-24T04:26:57.360Z,98963.38
2022-08-24T04:29:26.580Z,98958.69
2022-08-24T04:31:55.338Z,98967.34
2022-08-24T04:34:23.993Z,98956.81
2022-08-24T04:36:52.568Z,98951.91
2022-08-24T04:39:21.079Z,98949.84
2022-08-24T04:41:52.349Z,98952.69
2022-08-24T04:44:21.248Z,98959.63
2022-08-24T04:46:49.874Z,98950.06
2022-08-24T04:49:18.698Z,98955.16
2022-08-24T04:51:47.241Z,98956.13
2022-08-24T04:54:15.781Z,98951.22
2022-08-24T04:56:44.263Z,98951.97
2022-08-24T04:59:12.846Z,98956.31
2022-08-24T05:01:43.882Z,98951.06
2022-08-24T05:04:12.771Z,98939.22
2022-08-24T05:06:43.950Z,98931.13
2022-08-24T05:09:13.373Z,98929.47
2022-08-24T05:11:49.607Z,98922.72
2022-08-24T05:14:18.434Z,98907.47
2022-08-24T05:16:52.852Z,98904.81
2022-08-24T05:19:24.122Z,98898.09
2022-08-24T05:21:53.009Z,98895.09
2022-08-24T05:24:22.032Z,98899.41
2022-08-24T05:26:52.435Z,98891.69
2022-08-24T05:29:21.740Z,98885.31
2022-08-24T05:31:50.475Z,98879.09
2022-08-24T05:34:19.801Z,98869.47
2022-08-24T05:36:48.431Z,98865.72
2022-08-24T05:39:16.915Z,98855.91
2022-08-24T05:41:47.342Z,98847.25
2022-08-24T05:44:18.167Z,98838.63
2022-08-24T05:46:47.448Z,98824.84
2022-08-24T05:49:16.044Z,98823.16
2022-08-24T05:51:44.695Z,98821.28
2022-08-24T05:54:14.736Z,98815.47
2022-08-24T05:56:44.775Z,98803.00
2022-08-24T05:59:14.909Z,98802.84
2022-08-24T06:01:45.547Z,98787.19
2022-08-24T06:04:14.525Z,98774.34
2022-08-24T06:06:43.807Z,98762.09
2022-08-24T06:09:17.594Z,98747.78
2022-08-24T06:11:48.596Z,98746.63
2022-08-24T06:14:20.998Z,98737.03
2022-08-24T06:16:53.759Z,98738.91
2022-08-24T06:19:22.680Z,98728.16
2022-08-24T06:21:53.932Z,98719.31
2022-08-24T06:24:44.510Z,98721.38
2022-08-24T06:27:24.096Z,98716.84
2022-08-24T06:29:59.207Z,98709.69
2022-08-24T06:32:28.007Z,98709.50
2022-08-24T06:35:00.188Z,98704.44
2022-08-24T06:37:30.082Z,98694.06
2022-08-24T06:40:00.640Z,98688.22
2022-08-24T06:42:32.645Z,98684.44
2022-08-24T06:45:01.367Z,98682.91
2022-08-24T06:47:30.379Z,98675.19
2022-08-24T06:50:01.135Z,98671.03
2022-08-24T06:52:33.023Z,98667.63
2022-08-24T06:55:01.844Z,98657.03
2022-08-24T06:57:32.698Z,98657.97
2022-08-24T07:00:01.182Z,98650.78
2022-08-24T07:02:29.750Z,98647.75
2022-08-24T07:04:58.444Z,98634.13
2022-08-24T07:07:26.974Z,98629.41
2022-08-24T07:09:55.687Z,98623.19
2022-08-24T07:12:24.993Z,98620.91
2022-08-24T07:14:53.521Z,98620.72
2022-08-24T07:17:22.363Z,98613.38
2022-08-24T07:19:52.036Z,98605.81
2022-08-24T07:22:20.948Z,98599.25
2022-08-24T07:24:49.441Z,98587.75
2022-08-24T07:27:20.072Z,98593.41
2022-08-24T07:29:59.883Z,98580.41
2022-08-24T07:32:33.354Z,98574.41
2022-08-24T07:35:02.205Z,98576.47
2022-08-24T07:37:40.740Z,98579.13
2022-08-24T07:40:10.654Z,98576.28
2022-08-24T07:42:41.236Z,98570.06
2022-08-24T07:45:10.509Z,98571.97
2022-08-24T07:47:44.583Z,98568.38
2022-08-24T07:50:20.031Z,98552.72
2022-08-24T07:52:48.835Z,98542.72
2022-08-24T07:55:17.583Z,98532.34
2022-08-24T07:57:47.274Z,98532.94
2022-08-24T08:00:20.687Z,98537.44
2022-08-24T08:02:50.965Z,98533.69
2022-08-24T08:05:23.657Z,98536.69
2022-08-24T08:07:53.520Z,98532.72
2022-08-24T08:10:24.291Z,98529.31
2022-08-24T08:12:53.285Z,98527.56
2022-08-24T08:15:21.986Z,98522.25
2022-08-24T08:17:55.686Z,98516.03
2022-08-24T08:20:24.709Z,98506.41
2022-08-24T08:23:11.326Z,98501.69
2022-08-24T08:25:40.912Z,98505.84
2022-08-24T08:28:25.396Z,98493.56
2022-08-24T08:30:55.288Z,98495.44
2022-08-24T08:36:08.976Z,98482.06
2022-08-24T08:38:38.318Z,98497.53
2022-08-24T08:41:14.090Z,98488.13
2022-08-24T08:43:56.766Z,98489.69
2022-08-24T08:46:46.483Z,98486.88
2022-08-24T08:49:23.772Z,98480.31
2022-08-24T08:52:37.981Z,98473.72
2022-08-24T08:55:33.104Z,98476.19
2022-08-24T08:58:32.555Z,98468.47
2022-08-24T09:01:32.792Z,98463.38
2022-08-24T09:04:21.211Z,98465.88
2022-08-24T09:07:27.323Z,98460.78
2022-08-24T09:10:29.644Z,98453.63
2022-08-24T09:13:19.220Z,98445.16
2022-08-24T09:16:10.270Z,98440.06
2022-08-24T09:18:50.530Z,98427.25
2022-08-24T09:21:37.279Z,98427.81
2022-08-24T09:24:26.567Z,98426.69
2022-08-24T09:27:27.087Z,98428.56
2022-08-24T09:30:19.541Z,98428.56
2022-08-24T09:33:07.779Z,98429.16
2022-08-24T09:35:54.995Z,98419.34
2022-08-24T09:38:45.029Z,98423.50
2022-08-24T09:41:19.301Z,98431.81
2022-08-24T09:44:22.951Z,98428.59
2022-08-24T09:47:12.588Z,98438.25
2022-08-24T09:50:14.197Z,98437.88
2022-08-24T09:53:11.191Z,98441.09
2022-08-24T09:55:58.377Z,98437.16
2022-08-24T09:58:51.551Z,98440.38
2022-08-24T10:01:31.942Z,98448.88
2022-08-24T10:04:13.020Z,98446.78
2022-08-24T10:06:44.609Z,98446.22
2022-08-24T10:09:28.936Z,98439.81
2022-08-24T10:12:06.734Z,98436.41
2022-08-24T10:14:40.897Z,98441.31
2022-08-24T10:17:44.218Z,98436.97
2022-08-24T10:20:34.633Z,98427.41
2022-08-24T10:23:12.724Z,98424.56
2022-08-24T10:26:14.224Z,98428.72
2022-08-24T10:29:33.390Z,98424.97
2022-08-24T10:32:22.585Z,98429.66
2022-08-24T10:35:03.463Z,98441.53
2022-08-24T10:38:23.501Z,98437.03
2022-08-24T10:41:07.211Z,98439.69
2022-08-24T10:44:05.390Z,98437.59
2022-08-24T10:47:08.280Z,98442.16
2022-08-24T10:49:36.763Z,98441.22
2022-08-24T10:52:08.325Z,98461.59
2022-08-24T10:54:38.495Z,98461.41
2022-08-24T10:57:17.466Z,98468.94
2022-08-24T11:00:22.539Z,98470.09
2022-08-24T11:03:17.279Z,98483.06
2022-08-24T11:05:52.730Z,98487.63
2022-08-24T11:08:29.131Z,98490.81
2022-08-24T11:11:25.092Z,98484.78
2022-08-24T11:14:00.113Z,98492.91
2022-08-24T11:16:44.238Z,98494.59
2022-08-24T11:19:16.021Z,98491.97
2022-08-24T11:21:47.315Z,98505.72
2022-08-24T11:24:27.822Z,98499.50
2022-08-24T11:26:58.803Z,98499.69
2022-08-24T11:29:55.786Z,98499.91
2022-08-24T11:32:44.692Z,98508.56
2022-08-24T11:35:24.814Z,98521.53
2022-08-24T11:37:57.450Z,98515.31
2022-08-24T11:40:32.012Z,98517.00
2022-08-24T11:43:27.575Z,98515.88
2022-08-24T11:46:15.413Z,98516.25
2022-08-24T11:48:58.711Z,98511.72
2022-08-24T11:51:41.986Z,98517.72
2022-08-24T11:54:25.625Z,98515.84
2022-08-24T11:56:54.176Z,98518.47
2022-08-24T11:59:31.802Z,98521.66
2022-08-24T12:02:11.316Z,98527.88
2022-08-24T12:04:47.725Z,98536.69
2022-08-24T12:07:19.425Z,98537.25
2022-08-24T12:10:02.913Z,98532.75
2022-08-24T12:12:47.530Z,98545.16
2022-08-24T12:15:44.717Z,98542.13
2022-08-24T12:18:18.354Z,98549.81
2022-08-24T12:20:50.747Z,98544.75
2022-08-24T12:23:45.029Z,98552.44
2022-08-24T12:26:37.576Z,98551.50
2022-08-24T12:29:30.460Z,98554.88
2022-08-24T12:32:08.444Z,98560.91
2022-08-24T12:34:48.810Z,98557.88
2022-08-24T12:37:41.432Z,98563.13
2022-08-24T12:40:15.213Z,98571.41
2022-08-24T12:43:28.968Z,98580.94
2022-08-24T12:46:02.411Z,98577.94
2022-08-24T12:48:47.137Z,98580.00
2022-08-24T12:52:04.004Z,98580.00
2022-08-24T12:54:38.303Z,98586.19
2022-08-24T12:57:18.562Z,98593.16
2022-08-24T12:59:50.316Z,98593.69
2022-08-24T13:02:18.864Z,98609.09
2022-08-24T13:04:50.417Z,98621.69
2022-08-24T13:07:41.583Z,98628.63
2022-08-24T13:10:16.073Z,98630.50
2022-08-24T13:12:47.364Z,98636.69
2022-08-24T13:15:27.301Z,98647.22
2022-08-24T13:18:02.966Z,98651.34
2022-08-24T13:20:38.056Z,98654.72
2022-08-24T13:23:15.435Z,98654.72
2022-08-24T13:25:52.711Z,98656.78
2022-08-24T13:28:24.242Z,98655.47
2022-08-24T13:31:04.932Z,98651.91
2022-08-24T13:33:40.521Z,98658.84
2022-08-24T13:36:36.215Z,98666.56
2022-08-24T13:39:35.767Z,98668.63
2022-08-24T13:42:31.992Z,98672.19
2022-08-24T13:45:18.927Z,98683.25
2022-08-24T13:48:08.924Z,98674.63
2022-08-24T13:51:01.149Z,98683.81
2022-08-24T13:54:05.198Z,98686.44
2022-08-24T13:56:47.265Z,98692.06
2022-08-24T13:59:40.993Z,98690.00
2022-08-24T14:02:51.948Z,98694.91
2022-08-24T14:05:29.605Z,98702.03
2022-08-24T14:08:06.988Z,98702.03
2022-08-24T14:10:58.376Z,98707.69
2022-08-24T14:13:48.948Z,98712.56
2022-08-24T14:17:19.719Z,98718.75
2022-08-24T14:20:03.598Z,98735.13
2022-08-24T14:22:41.116Z,98723.63
2022-08-24T14:25:22.984Z,98736.41
2022-08-24T14:28:00.896Z,98732.09
2022-08-24T14:30:29.569Z,98741.84
2022-08-24T14:33:00.815Z,98747.50
2022-08-24T14:35:45.858Z,98747.50
2022-08-24T14:38:32.131Z,98743.16
2022-08-24T14:41:21.767Z,98748.81
2022-08-24T14:44:07.294Z,98748.03
2022-08-24T14:46:51.221Z,98746.00
2022-08-24T14:49:38.338Z,98752.38
2022-08-24T14:52:31.526Z,98758.00
2022-08-24T14:55:09.381Z,98757.25
2022-08-24T14:58:05.306Z,98750.88
2022-08-24T15:00:57.459Z,98739.59
2022-08-24T15:04:02.810Z,98733.19
2022-08-24T15:06:38.864Z,98741.47
2022-08-24T15:09:24.997Z,98745.59
2022-08-24T15:12:02.426Z,98749.72
2022-08-24T15:14:52.451Z,98763.03
2022-08-24T15:17:36.620Z,98765.06
2022-08-24T15:20:40.100Z,98769.97
2022-08-24T15:23:20.828Z,98765.06
2022-08-24T15:26:00.440Z,98758.69
2022-08-24T15:28:34.348Z,98765.88
2022-08-24T15:31:12.743Z,98759.44
2022-08-24T15:34:13.809Z,98770.19
2022-08-24T15:36:42.400Z,98771.69
2022-08-24T15:39:10.953Z,98767.56
2022-08-24T15:41:45.413Z,98756.31
2022-08-24T15:44:25.542Z,98757.81
2022-08-24T15:47:13.098Z,98753.69
2022-08-24T15:49:56.937Z,98741.66
2022-08-24T15:52:38.915Z,98742.22
2022-08-24T15:55:12.694Z,98745.03
2022-08-24T15:57:45.548Z,98741.47
2022-08-24T16:00:40.499Z,98764.56
2022-08-24T16:03:23.106Z,98763.78
2022-08-24T16:05:54.479Z,98765.06
2022-08-24T16:08:24.652Z,98757.94
2022-08-24T16:10:59.060Z,98759.44
2022-08-24T16:13:34.354Z,98757.41
2022-08-24T16:16:10.301Z,98757.41
2022-08-24T16:18:50.717Z,98754.03
2022-08-24T16:22:06.670Z,98746.88
2022-08-24T16:24:41.976Z,98751.22
2022-08-24T16:27:18.456Z,98750.47
2022-08-24T16:29:54.129Z,98756.09
2022-08-24T16:32:32.515Z,98744.81
2022-08-24T16:35:12.962Z,98738.44
2022-08-24T16:37:41.841Z,98724.34
2022-08-24T16:40:11.218Z,98721.53
2022-08-24T16:42:41.809Z,98721.72
2022-08-24T16:45:13.514Z,98717.41
2022-08-24T16:47:42.217Z,98713.81
2022-08-24T16:50:11.399Z,98723.78
2022-08-24T16:52:39.981Z,98716.66
2022-08-24T16:55:08.912Z,98707.44
2022-08-24T16:57:38.646Z,98714.59
2022-08-24T17:00:11.225Z,98721.72
2022-08-24T17:02:39.942Z,98711.22
2022-08-24T17:05:08.940Z,98711.22
2022-08-24T17:07:38.529Z,98702.75
2022-08-24T17:10:10.203Z,98702.75
2022-08-24T17:12:39.594Z,98705.03
2022-08-24T17:15:10.907Z,98702.19
2022-08-24T17:17:40.245Z,98706.31
2022-08-24T17:20:12.143Z,98695.06
2022-08-24T17:22:40.902Z,98690.72
2022-08-24T17:25:09.663Z,98687.72
2022-08-24T17:27:38.793Z,98679.78
2022-08-24T17:30:08.579Z,98688.59
2022-08-24T17:32:37.387Z,98683.31
2022-08-24T17:35:06.295Z,98683.66
2022-08-24T17:37:34.999Z,98682.50
2022-08-24T17:40:05.874Z,98683.59
2022-08-24T17:42:50.275Z,98678.13
2022-08-24T17:45:22.254Z,98668.25
2022-08-24T17:47:52.176Z,98663.50
2022-08-24T17:50:22.108Z,98647.53
2022-08-24T17:52:56.264Z,98641.47
2022-08-24T17:55:29.430Z,98634.69
2022-08-24T17:57:58.310Z,98630.16
2022-08-24T18:00:26.933Z,98623.53
2022-08-24T18:02:55.626Z,98626.72
2022-08-24T18:05:24.885Z,98618.63
2022-08-24T18:07:55.987Z,98616.16
2022-08-24T18:10:30.278Z,98615.19
2022-08-24T18:12:59.756Z,98609.91
2022-08-24T18:15:34.674Z,98607.63
2022-08-24T18:18:08.734Z,98605.38
2022-08-24T18:20:42.026Z,98615.69
2022-08-24T18:23:11.550Z,98613.41
2022-08-24T18:25:50.964Z,98601.94
2022-08-24T18:28:23.972Z,98602.25
2022-08-24T18:30:52.957Z,98596.44
2022-08-24T18:33:21.520Z,98589.06
2022-08-24T18:35:50.043Z,98581.72
2022-08-24T18:38:19.074Z,98584.31
2022-08-24T18:40:52.645Z,98577.19
2022-08-24T18:43:24.523Z,98573.97
2022-08-24T18:45:54.557Z,98577.34
2022-08-24T18:48:24.010Z,98572.25
2022-08-24T18:50:53.722Z,98570.00
2022-08-24T18:53:25.433Z,98562.84
2022-08-24T18:55:54.063Z,98557.03
2022-08-24T18:58:22.966Z,98557.03
2022-08-24T19:00:52.237Z,98549.13
2022-08-24T19:03:23.461Z,98559.41
2022-08-24T19:05:52.054Z,98555.63
2022-08-24T19:08:20.637Z,98559.75
2022-08-24T19:10:49.229Z,98568.72
2022-08-24T19:13:19.446Z,98579.22
2022-08-24T19:15:50.672Z,98578.25
2022-08-24T19:18:22.372Z,98576.00
2022-08-24T19:20:54.771Z,98582.72
2022-08-24T19:23:29.614Z,98580.66
2022-08-24T19:25:59.516Z,98580.47
2022-08-24T19:28:29.059Z,98581.75
2022-08-24T19:30:59.927Z,98577.97
2022-08-24T19:33:33.447Z,98577.78
2022-08-24T19:36:02.142Z,98567.06
2022-08-24T19:38:31.592Z,98562.00
2022-08-24T19:41:01.237Z,98554.63
2022-08-24T19:43:31.119Z,98552.91
2022-08-24T19:46:03.460Z,98542.75
2022-08-24T19:48:33.570Z,98551.00
2022-08-24T19:51:07.945Z,98554.91
2022-08-24T19:53:38.997Z,98549.59
2022-08-24T19:56:08.817Z,98549.91
2022-08-24T19:59:42.176Z,98549.50
2022-08-24T20:02:10.776Z,98543.47
2022-08-24T20:04:39.269Z,98531.22
2022-08-24T20:07:08.824Z,98528.97
2022-08-24T20:09:37.415Z,98533.63
2022-08-24T20:12:06.477Z,98536.22
2022-08-24T20:14:37.444Z,98530.38
2022-08-24T20:17:06.989Z,98529.63
2022-08-24T20:19:39.022Z,98516.13
2022-08-24T20:22:13.518Z,98513.09
2022-08-24T20:24:43.635Z,98513.66
2022-08-24T20:27:22.703Z,98513.44
2022-08-24T20:29:51.648Z,98523.19
2022-08-24T20:32:20.308Z,98525.03
2022-08-24T20:34:48.891Z,98521.25
2022-08-24T20:37:25.130Z,98522.53
2022-08-24T20:39:56.472Z,98523.09
2022-08-24T20:42:27.700Z,98532.78
2022-08-24T20:44:56.975Z,98540.25
2022-08-24T20:47:25.638Z,98538.53
2022-08-24T20:49:54.430Z,98535.50
2022-08-24T20:52:23.132Z,98542.44
2022-08-24T20:54:51.752Z,98553.44
2022-08-24T20:57:22.516Z,98553.25
2022-08-24T20:59:51.200Z,98547.41
2022-08-24T21:02:19.830Z,98551.53
2022-08-24T21:04:48.436Z,98542.88
2022-08-24T21:07:17.674Z,98542.13
2022-08-24T21:09:46.179Z,98549.25
2022-08-24T21:12:15.163Z,98552.59
2022-08-24T21:14:43.798Z,98554.66
2022-08-24T21:17:12.384Z,98562.31
2022-08-24T21:19:40.903Z,98559.31
2022-08-24T21:22:09.837Z,98569.25
2022-08-24T21:24:38.790Z,98573.88
2022-08-24T21:27:07.782Z,98585.63
2022-08-24T21:29:36.653Z,98583.38
2022-08-24T21:32:23.892Z,98588.22
2022-08-24T21:34:52.464Z,98593.06
2022-08-24T21:37:21.415Z,98596.66
2022-08-24T21:39:50.600Z,98602.03
2022-08-24T21:42:19.229Z,98600.53
2022-08-24T21:44:49.082Z,98603.13
2022-08-24T21:47:18.485Z,98608.50
2022-08-24T21:49:47.092Z,98607.53
2022-08-24T21:52:15.827Z,98612.19
2022-08-24T21:54:44.600Z,98613.47
2022-08-24T21:57:13.535Z,98609.16
2022-08-24T21:59:42.293Z,98602.78
2022-08-24T22:02:10.932Z,98608.41
2022-08-24T22:04:44.437Z,98594.16
2022-08-24T22:07:13.438Z,98601.81
2022-08-24T22:09:42.179Z,98607.22
2022-08-24T22:12:10.791Z,98613.59
2022-08-24T22:14:39.516Z,98613.38
2022-08-24T22:17:08.639Z,98619.53
2022-08-24T22:19:37.289Z,98621.34
2022-08-24T22:22:06.249Z,98607.84
2022-08-24T22:24:34.804Z,98609.16
2022-08-24T22:27:03.526Z,98616.78
2022-08-24T22:29:32.080Z,98617.34
2022-08-24T22:32:00.713Z,98624.03
2022-08-24T22:34:29.291Z,98628.13
2022-08-24T22:37:00.415Z,98629.41
2022-08-24T22:39:29.591Z,98629.94
2022-08-24T22:41:58.152Z,98617.97
2022-08-24T22:44:28.753Z,98615.16
2022-08-24T22:47:03.012Z,98611.59
2022-08-24T22:49:44.770Z,98604.47
2022-08-24T22:52:15.271Z,98615.69
2022-08-24T22:54:44.434Z,98621.84
2022-08-24T22:57:12.946Z,98612.13
2022-08-24T22:59:46.106Z,98613.44
2022-08-24T23:02:17.767Z,98616.47
2022-08-24T23:04:49.046Z,98617.97
2022-08-24T23:07:17.911Z,98627.91
2022-08-24T23:09:47.563Z,98633.50
2022-08-24T23:12:23.863Z,98640.66
2022-08-24T23:14:53.843Z,98645.50
2022-08-24T23:17:23.667Z,98649.28
2022-08-24T23:20:01.874Z,98658.47
2022-08-24T23:22:36.794Z,98660.72
2022-08-24T23:25:07.867Z,98660.72
2022-08-24T23:27:38.545Z,98670.66
2022-08-24T23:30:11.319Z,98676.53
2022-08-24T23:32:40.660Z,98676.75
2022-08-24T23:35:12.085Z,98681.81
2022-08-24T23:37:40.677Z,98686.91
2022-08-24T23:40:09.844Z,98699.13
2022-08-24T23:42:38.381Z,98694.25
2022-08-24T23:45:11.653Z,98692.41
2022-08-24T23:47:41.513Z,98703.13
2022-08-24T23:50:11.087Z,98694.91
2022-08-24T23:52:40.558Z,98695.66
2022-08-24T23:55:21.479Z,98697.94
2022-08-24T23:57:51.245Z,98695.34
